KMLS/MLS METAR and TAF weather

Enter ICAO airport designator
Station Type Date Time Source
KMLS METAR 2019/12/11 11:53 UTC NOAA

KMLS 111153Z AUTO 05005KT 10SM OVC006 M11/M13 A3005 RMK AO2 SLP215 T11111128 11067 21117 58012


Station Type Date Time Source
KMLS Decoded METAR 2019/12/11 11:53 UTC NOAA

MILES CITY WILEY FIELD, MT, United States (KMLS) 46-26N 105-53W 801M
Dec 11, 2019 - 06:53 AM EST / 2019.12.11 1153 UTC
Wind: from the NE (050 degrees) at 6 MPH (5 KT):0
Visibility: 10 mile(s):0
Sky conditions: overcast
Temperature: 12.0 F (-11.1 C)
Windchill: 3 F (-16 C):1
Dew Point: 9.0 F (-12.8 C)
Relative Humidity: 87%
Pressure (altimeter): 30.05 in. Hg (1017 hPa)
Pressure tendency: 0.04 inches (1.2 hPa) lower than three hours ago
ob: KMLS 111153Z AUTO 05005KT 10SM OVC006 M11/M13 A3005 RMK AO2 SLP215 T11111128 11067 21117 58012
cycle: 12

Station Type Date Time Source
KMLS TAF 2019/12/11 12:24 UTC NOAA

TAF KMLS 111123Z 1112/1212 09009KT P6SM OVC250
TEMPO 1112/1113 BKN005 OVC012
FM111400 09008KT P6SM SCT050 BKN100
FM112200 30008KT P6SM OVC050

Example: see airport list